sensor_id;sensor_type;location;lat;lon;timestamp;P1;durP1;ratioP1;P2;durP2;ratioP2
73428;SDS011;61643;49.564;17.412;2023-02-11T00:00:08;56.72;;;23.63;;
73428;SDS011;61643;49.564;17.412;2023-02-11T00:02:35;68.60;;;23.88;;
73428;SDS011;61643;49.564;17.412;2023-02-11T00:05:02;53.63;;;21.73;;
73428;SDS011;61643;49.564;17.412;2023-02-11T00:07:28;58.38;;;22.60;;
73428;SDS011;61643;49.564;17.412;2023-02-11T00:09:55;62.92;;;23.23;;
73428;SDS011;61643;49.564;17.412;2023-02-11T00:12:21;64.85;;;23.88;;
73428;SDS011;61643;49.564;17.412;2023-02-11T00:14:47;67.53;;;24.33;;
73428;SDS011;61643;49.564;17.412;2023-02-11T00:17:13;67.75;;;24.50;;
73428;SDS011;61643;49.564;17.412;2023-02-11T00:19:39;61.70;;;24.30;;
73428;SDS011;61643;49.564;17.412;2023-02-11T00:22:06;69.82;;;25.55;;
73428;SDS011;61643;49.564;17.412;2023-02-11T00:24:32;64.43;;;25.13;;
73428;SDS011;61643;49.564;17.412;2023-02-11T00:26:58;66.35;;;24.67;;
73428;SDS011;61643;49.564;17.412;2023-02-11T00:29:24;59.83;;;23.10;;
73428;SDS011;61643;49.564;17.412;2023-02-11T00:31:50;67.03;;;25.30;;
73428;SDS011;61643;49.564;17.412;2023-02-11T00:34:16;76.47;;;26.15;;
73428;SDS011;61643;49.564;17.412;2023-02-11T00:36:42;68.00;;;24.10;;
73428;SDS011;61643;49.564;17.412;2023-02-11T00:39:08;61.47;;;22.98;;
73428;SDS011;61643;49.564;17.412;2023-02-11T00:41:34;66.50;;;22.80;;
73428;SDS011;61643;49.564;17.412;2023-02-11T00:44:01;57.53;;;22.42;;
73428;SDS011;61643;49.564;17.412;2023-02-11T00:46:27;61.85;;;22.00;;
73428;SDS011;61643;49.564;17.412;2023-02-11T00:48:53;51.60;;;20.52;;
73428;SDS011;61643;49.564;17.412;2023-02-11T00:51:25;58.88;;;21.38;;
73428;SDS011;61643;49.564;17.412;2023-02-11T00:53:53;57.22;;;20.65;;
73428;SDS011;61643;49.564;17.412;2023-02-11T00:56:19;48.10;;;18.55;;
73428;SDS011;61643;49.564;17.412;2023-02-11T00:58:45;56.92;;;21.45;;
73428;SDS011;61643;49.564;17.412;2023-02-11T01:01:12;56.10;;;20.77;;
73428;SDS011;61643;49.564;17.412;2023-02-11T01:03:38;57.60;;;20.65;;
73428;SDS011;61643;49.564;17.412;2023-02-11T01:06:05;55.88;;;21.73;;
73428;SDS011;61643;49.564;17.412;2023-02-11T01:08:33;61.55;;;22.35;;
73428;SDS011;61643;49.564;17.412;2023-02-11T01:11:00;60.25;;;21.90;;
73428;SDS011;61643;49.564;17.412;2023-02-11T01:15:55;54.58;;;20.23;;
73428;SDS011;61643;49.564;17.412;2023-02-11T01:18:21;55.08;;;20.35;;
73428;SDS011;61643;49.564;17.412;2023-02-11T01:20:47;57.38;;;20.90;;
73428;SDS011;61643;49.564;17.412;2023-02-11T01:23:15;60.67;;;23.15;;
73428;SDS011;61643;49.564;17.412;2023-02-11T01:25:41;51.40;;;20.23;;
73428;SDS011;61643;49.564;17.412;2023-02-11T01:28:11;56.83;;;20.50;;
73428;SDS011;61643;49.564;17.412;2023-02-11T01:30:47;56.30;;;21.35;;
73428;SDS011;61643;49.564;17.412;2023-02-11T01:33:13;59.85;;;22.45;;
73428;SDS011;61643;49.564;17.412;2023-02-11T01:35:40;57.28;;;21.25;;
73428;SDS011;61643;49.564;17.412;2023-02-11T01:38:07;59.22;;;22.73;;
73428;SDS011;61643;49.564;17.412;2023-02-11T01:40:38;53.78;;;20.98;;
73428;SDS011;61643;49.564;17.412;2023-02-11T01:43:04;59.22;;;22.38;;
73428;SDS011;61643;49.564;17.412;2023-02-11T01:45:41;54.85;;;21.02;;
73428;SDS011;61643;49.564;17.412;2023-02-11T01:48:17;59.42;;;22.52;;
73428;SDS011;61643;49.564;17.412;2023-02-11T01:50:44;52.50;;;21.05;;
73428;SDS011;61643;49.564;17.412;2023-02-11T01:53:14;53.28;;;19.77;;
73428;SDS011;61643;49.564;17.412;2023-02-11T01:56:01;67.88;;;23.10;;
73428;SDS011;61643;49.564;17.412;2023-02-11T01:58:46;62.50;;;22.63;;
73428;SDS011;61643;49.564;17.412;2023-02-11T02:01:16;57.72;;;23.50;;
73428;SDS011;61643;49.564;17.412;2023-02-11T02:03:47;55.08;;;20.42;;
73428;SDS011;61643;49.564;17.412;2023-02-11T02:06:24;56.20;;;21.08;;
73428;SDS011;61643;49.564;17.412;2023-02-11T02:09:15;60.67;;;22.17;;
73428;SDS011;61643;49.564;17.412;2023-02-11T02:11:47;57.35;;;21.73;;
73428;SDS011;61643;49.564;17.412;2023-02-11T02:14:13;56.55;;;21.52;;
73428;SDS011;61643;49.564;17.412;2023-02-11T02:16:39;51.42;;;20.88;;
73428;SDS011;61643;49.564;17.412;2023-02-11T02:40:56;47.25;;;17.35;;
73428;SDS011;61643;49.564;17.412;2023-02-11T02:43:27;52.58;;;20.40;;
73428;SDS011;61643;49.564;17.412;2023-02-11T02:45:54;48.78;;;20.35;;
73428;SDS011;61643;49.564;17.412;2023-02-11T02:48:30;49.60;;;19.60;;
73428;SDS011;61643;49.564;17.412;2023-02-11T02:51:07;54.75;;;21.38;;
73428;SDS011;61643;49.564;17.412;2023-02-11T03:01:29;56.50;;;22.15;;
73428;SDS011;61643;49.564;17.412;2023-02-11T03:04:10;54.58;;;21.80;;
73428;SDS011;61643;49.564;17.412;2023-02-11T03:07:08;50.80;;;19.38;;
73428;SDS011;61643;49.564;17.412;2023-02-11T03:09:43;60.85;;;20.75;;
73428;SDS011;61643;49.564;17.412;2023-02-11T03:12:16;55.65;;;21.67;;
73428;SDS011;61643;49.564;17.412;2023-02-11T03:14:43;53.15;;;20.08;;
73428;SDS011;61643;49.564;17.412;2023-02-11T03:17:11;57.92;;;20.63;;
73428;SDS011;61643;49.564;17.412;2023-02-11T03:19:40;61.20;;;23.00;;
73428;SDS011;61643;49.564;17.412;2023-02-11T03:22:11;52.38;;;19.88;;
73428;SDS011;61643;49.564;17.412;2023-02-11T03:24:43;54.80;;;20.42;;
73428;SDS011;61643;49.564;17.412;2023-02-11T03:32:35;59.47;;;20.67;;
73428;SDS011;61643;49.564;17.412;2023-02-11T03:35:20;51.28;;;20.80;;
73428;SDS011;61643;49.564;17.412;2023-02-11T03:37:54;57.58;;;21.00;;
73428;SDS011;61643;49.564;17.412;2023-02-11T03:40:25;50.15;;;20.98;;
73428;SDS011;61643;49.564;17.412;2023-02-11T03:42:58;44.00;;;17.90;;
73428;SDS011;61643;49.564;17.412;2023-02-11T03:45:29;56.85;;;20.15;;
73428;SDS011;61643;49.564;17.412;2023-02-11T03:47:57;52.17;;;19.92;;
73428;SDS011;61643;49.564;17.412;2023-02-11T03:50:26;48.83;;;18.88;;
73428;SDS011;61643;49.564;17.412;2023-02-11T03:55:21;52.17;;;20.30;;
73428;SDS011;61643;49.564;17.412;2023-02-11T03:57:50;46.28;;;18.77;;
73428;SDS011;61643;49.564;17.412;2023-02-11T04:00:16;49.72;;;17.85;;
73428;SDS011;61643;49.564;17.412;2023-02-11T04:02:43;47.13;;;18.55;;
73428;SDS011;61643;49.564;17.412;2023-02-11T04:05:10;50.28;;;18.80;;
73428;SDS011;61643;49.564;17.412;2023-02-11T04:07:37;52.08;;;19.98;;
73428;SDS011;61643;49.564;17.412;2023-02-11T04:10:03;49.92;;;19.33;;
73428;SDS011;61643;49.564;17.412;2023-02-11T04:12:30;53.50;;;20.23;;
73428;SDS011;61643;49.564;17.412;2023-02-11T04:14:56;49.78;;;18.40;;
73428;SDS011;61643;49.564;17.412;2023-02-11T04:17:22;45.78;;;18.42;;
73428;SDS011;61643;49.564;17.412;2023-02-11T04:19:48;55.05;;;19.33;;
73428;SDS011;61643;49.564;17.412;2023-02-11T04:22:14;49.17;;;18.95;;
73428;SDS011;61643;49.564;17.412;2023-02-11T04:24:40;47.50;;;19.40;;
73428;SDS011;61643;49.564;17.412;2023-02-11T04:27:08;50.90;;;19.92;;
73428;SDS011;61643;49.564;17.412;2023-02-11T04:29:34;53.17;;;19.42;;
73428;SDS011;61643;49.564;17.412;2023-02-11T04:32:00;48.42;;;18.17;;
73428;SDS011;61643;49.564;17.412;2023-02-11T04:34:26;54.03;;;20.08;;
73428;SDS011;61643;49.564;17.412;2023-02-11T04:36:52;55.65;;;20.98;;
73428;SDS011;61643;49.564;17.412;2023-02-11T04:39:18;48.95;;;19.30;;
73428;SDS011;61643;49.564;17.412;2023-02-11T04:41:44;50.42;;;19.48;;
73428;SDS011;61643;49.564;17.412;2023-02-11T04:44:10;47.90;;;19.52;;
73428;SDS011;61643;49.564;17.412;2023-02-11T04:46:36;51.05;;;20.98;;
73428;SDS011;61643;49.564;17.412;2023-02-11T04:49:03;48.58;;;19.48;;
73428;SDS011;61643;49.564;17.412;2023-02-11T04:51:30;54.20;;;19.98;;
73428;SDS011;61643;49.564;17.412;2023-02-11T04:53:56;51.55;;;20.40;;
73428;SDS011;61643;49.564;17.412;2023-02-11T04:56:22;47.53;;;19.23;;
73428;SDS011;61643;49.564;17.412;2023-02-11T04:58:48;46.72;;;18.45;;
73428;SDS011;61643;49.564;17.412;2023-02-11T05:01:14;46.63;;;19.17;;
73428;SDS011;61643;49.564;17.412;2023-02-11T05:03:41;53.80;;;21.08;;
73428;SDS011;61643;49.564;17.412;2023-02-11T05:06:08;48.33;;;20.05;;
73428;SDS011;61643;49.564;17.412;2023-02-11T05:08:35;50.35;;;18.90;;
73428;SDS011;61643;49.564;17.412;2023-02-11T05:11:01;48.30;;;18.38;;
73428;SDS011;61643;49.564;17.412;2023-02-11T05:13:27;49.53;;;20.40;;
73428;SDS011;61643;49.564;17.412;2023-02-11T05:15:54;50.13;;;20.90;;
73428;SDS011;61643;49.564;17.412;2023-02-11T05:18:21;51.75;;;19.90;;
73428;SDS011;61643;49.564;17.412;2023-02-11T05:20:47;49.08;;;18.98;;
73428;SDS011;61643;49.564;17.412;2023-02-11T05:23:13;47.95;;;17.33;;
73428;SDS011;61643;49.564;17.412;2023-02-11T05:25:39;45.65;;;19.05;;
73428;SDS011;61643;49.564;17.412;2023-02-11T05:28:06;49.92;;;19.63;;
73428;SDS011;61643;49.564;17.412;2023-02-11T05:30:32;46.30;;;19.13;;
73428;SDS011;61643;49.564;17.412;2023-02-11T05:32:58;54.50;;;18.73;;
73428;SDS011;61643;49.564;17.412;2023-02-11T05:35:24;48.65;;;19.52;;
73428;SDS011;61643;49.564;17.412;2023-02-11T05:37:50;49.78;;;19.15;;
73428;SDS011;61643;49.564;17.412;2023-02-11T05:40:16;42.83;;;17.13;;
73428;SDS011;61643;49.564;17.412;2023-02-11T05:42:42;47.92;;;18.98;;
73428;SDS011;61643;49.564;17.412;2023-02-11T05:45:08;47.22;;;18.27;;
73428;SDS011;61643;49.564;17.412;2023-02-11T05:47:34;53.65;;;20.50;;
73428;SDS011;61643;49.564;17.412;2023-02-11T05:50:00;48.00;;;18.40;;
73428;SDS011;61643;49.564;17.412;2023-02-11T05:52:26;46.72;;;19.13;;
73428;SDS011;61643;49.564;17.412;2023-02-11T05:54:52;49.67;;;18.52;;
73428;SDS011;61643;49.564;17.412;2023-02-11T05:57:18;44.55;;;19.02;;
73428;SDS011;61643;49.564;17.412;2023-02-11T05:59:44;46.03;;;18.52;;
73428;SDS011;61643;49.564;17.412;2023-02-11T06:02:10;48.55;;;18.58;;
73428;SDS011;61643;49.564;17.412;2023-02-11T06:04:37;47.85;;;18.13;;
73428;SDS011;61643;49.564;17.412;2023-02-11T06:07:03;48.20;;;18.85;;
73428;SDS011;61643;49.564;17.412;2023-02-11T06:09:30;42.08;;;17.83;;
73428;SDS011;61643;49.564;17.412;2023-02-11T06:11:55;43.70;;;17.17;;
73428;SDS011;61643;49.564;17.412;2023-02-11T06:14:21;42.95;;;17.58;;
73428;SDS011;61643;49.564;17.412;2023-02-11T06:16:48;45.80;;;17.55;;
73428;SDS011;61643;49.564;17.412;2023-02-11T06:19:14;42.83;;;18.02;;
73428;SDS011;61643;49.564;17.412;2023-02-11T06:21:40;44.83;;;18.67;;
73428;SDS011;61643;49.564;17.412;2023-02-11T06:24:06;46.85;;;19.30;;
73428;SDS011;61643;49.564;17.412;2023-02-11T06:26:32;43.75;;;18.38;;
73428;SDS011;61643;49.564;17.412;2023-02-11T06:28:59;39.90;;;17.60;;
73428;SDS011;61643;49.564;17.412;2023-02-11T06:31:25;42.92;;;16.80;;
73428;SDS011;61643;49.564;17.412;2023-02-11T06:33:51;48.25;;;18.02;;
73428;SDS011;61643;49.564;17.412;2023-02-11T06:36:20;41.85;;;17.08;;
73428;SDS011;61643;49.564;17.412;2023-02-11T06:38:47;47.22;;;17.75;;
73428;SDS011;61643;49.564;17.412;2023-02-11T06:41:13;38.65;;;17.15;;
73428;SDS011;61643;49.564;17.412;2023-02-11T06:43:42;39.42;;;16.48;;
73428;SDS011;61643;49.564;17.412;2023-02-11T06:46:08;35.22;;;15.65;;
73428;SDS011;61643;49.564;17.412;2023-02-11T06:48:34;37.22;;;16.08;;
73428;SDS011;61643;49.564;17.412;2023-02-11T06:51:04;41.97;;;17.05;;
73428;SDS011;61643;49.564;17.412;2023-02-11T06:53:38;40.20;;;16.13;;
73428;SDS011;61643;49.564;17.412;2023-02-11T06:56:06;42.92;;;16.55;;
73428;SDS011;61643;49.564;17.412;2023-02-11T06:58:34;38.47;;;16.58;;
73428;SDS011;61643;49.564;17.412;2023-02-11T07:01:07;38.00;;;14.88;;
73428;SDS011;61643;49.564;17.412;2023-02-11T07:06:05;34.33;;;14.32;;
73428;SDS011;61643;49.564;17.412;2023-02-11T07:08:33;45.95;;;17.45;;
73428;SDS011;61643;49.564;17.412;2023-02-11T07:10:59;42.03;;;17.15;;
73428;SDS011;61643;49.564;17.412;2023-02-11T07:13:26;38.90;;;16.10;;
73428;SDS011;61643;49.564;17.412;2023-02-11T07:15:52;40.92;;;16.50;;
73428;SDS011;61643;49.564;17.412;2023-02-11T07:18:18;40.10;;;16.60;;
73428;SDS011;61643;49.564;17.412;2023-02-11T07:20:44;38.97;;;16.05;;
73428;SDS011;61643;49.564;17.412;2023-02-11T07:23:10;36.42;;;15.75;;
73428;SDS011;61643;49.564;17.412;2023-02-11T07:25:36;41.28;;;15.55;;
73428;SDS011;61643;49.564;17.412;2023-02-11T07:28:03;40.38;;;15.90;;
73428;SDS011;61643;49.564;17.412;2023-02-11T07:30:29;41.08;;;16.25;;
73428;SDS011;61643;49.564;17.412;2023-02-11T07:32:55;43.45;;;17.35;;
73428;SDS011;61643;49.564;17.412;2023-02-11T07:35:21;47.22;;;17.45;;
73428;SDS011;61643;49.564;17.412;2023-02-11T07:37:47;68.80;;;23.85;;
73428;SDS011;61643;49.564;17.412;2023-02-11T07:40:13;52.08;;;20.55;;
73428;SDS011;61643;49.564;17.412;2023-02-11T07:42:39;42.00;;;16.90;;
73428;SDS011;61643;49.564;17.412;2023-02-11T07:45:06;39.45;;;17.42;;
73428;SDS011;61643;49.564;17.412;2023-02-11T07:47:33;43.67;;;17.77;;
73428;SDS011;61643;49.564;17.412;2023-02-11T07:49:59;52.15;;;20.90;;
73428;SDS011;61643;49.564;17.412;2023-02-11T07:52:28;70.32;;;26.38;;
73428;SDS011;61643;49.564;17.412;2023-02-11T07:54:55;43.60;;;17.38;;
73428;SDS011;61643;49.564;17.412;2023-02-11T07:57:21;41.90;;;17.42;;
73428;SDS011;61643;49.564;17.412;2023-02-11T07:59:47;56.45;;;23.83;;
73428;SDS011;61643;49.564;17.412;2023-02-11T08:02:13;37.83;;;16.02;;
73428;SDS011;61643;49.564;17.412;2023-02-11T08:04:39;42.10;;;16.98;;
73428;SDS011;61643;49.564;17.412;2023-02-11T08:07:05;40.80;;;16.40;;
73428;SDS011;61643;49.564;17.412;2023-02-11T08:09:31;43.92;;;19.45;;
73428;SDS011;61643;49.564;17.412;2023-02-11T08:11:58;40.70;;;17.88;;
73428;SDS011;61643;49.564;17.412;2023-02-11T08:14:24;42.35;;;18.60;;
73428;SDS011;61643;49.564;17.412;2023-02-11T08:16:51;44.72;;;18.30;;
73428;SDS011;61643;49.564;17.412;2023-02-11T08:19:17;41.08;;;18.02;;
73428;SDS011;61643;49.564;17.412;2023-02-11T08:21:43;36.92;;;15.32;;
73428;SDS011;61643;49.564;17.412;2023-02-11T08:24:10;40.25;;;16.85;;
73428;SDS011;61643;49.564;17.412;2023-02-11T08:26:37;37.35;;;15.23;;
73428;SDS011;61643;49.564;17.412;2023-02-11T08:29:10;33.75;;;15.73;;
73428;SDS011;61643;49.564;17.412;2023-02-11T08:31:38;41.30;;;16.85;;
73428;SDS011;61643;49.564;17.412;2023-02-11T08:34:06;37.22;;;16.83;;
73428;SDS011;61643;49.564;17.412;2023-02-11T08:36:34;42.15;;;18.00;;
73428;SDS011;61643;49.564;17.412;2023-02-11T08:39:06;58.50;;;31.38;;
73428;SDS011;61643;49.564;17.412;2023-02-11T08:41:36;46.70;;;18.23;;
73428;SDS011;61643;49.564;17.412;2023-02-11T08:44:03;43.10;;;18.38;;
73428;SDS011;61643;49.564;17.412;2023-02-11T08:46:29;36.30;;;16.17;;
73428;SDS011;61643;49.564;17.412;2023-02-11T08:48:55;37.00;;;15.90;;
73428;SDS011;61643;49.564;17.412;2023-02-11T08:51:22;37.92;;;16.45;;
73428;SDS011;61643;49.564;17.412;2023-02-11T08:53:50;38.55;;;15.43;;
73428;SDS011;61643;49.564;17.412;2023-02-11T08:56:17;45.53;;;20.20;;
73428;SDS011;61643;49.564;17.412;2023-02-11T08:58:44;37.15;;;18.02;;
73428;SDS011;61643;49.564;17.412;2023-02-11T09:01:12;42.30;;;19.38;;
73428;SDS011;61643;49.564;17.412;2023-02-11T09:03:40;42.60;;;18.02;;
73428;SDS011;61643;49.564;17.412;2023-02-11T09:06:06;37.92;;;15.85;;
73428;SDS011;61643;49.564;17.412;2023-02-11T09:08:34;40.13;;;16.17;;
73428;SDS011;61643;49.564;17.412;2023-02-11T09:11:01;36.78;;;15.85;;
73428;SDS011;61643;49.564;17.412;2023-02-11T09:13:28;38.55;;;16.20;;
73428;SDS011;61643;49.564;17.412;2023-02-11T09:15:55;43.13;;;17.70;;
73428;SDS011;61643;49.564;17.412;2023-02-11T09:18:22;36.55;;;17.90;;
73428;SDS011;61643;49.564;17.412;2023-02-11T09:20:48;37.53;;;16.98;;
73428;SDS011;61643;49.564;17.412;2023-02-11T09:23:14;44.78;;;19.40;;
73428;SDS011;61643;49.564;17.412;2023-02-11T09:25:40;42.97;;;18.30;;
73428;SDS011;61643;49.564;17.412;2023-02-11T09:28:06;41.35;;;18.35;;
73428;SDS011;61643;49.564;17.412;2023-02-11T09:30:34;49.13;;;21.13;;
73428;SDS011;61643;49.564;17.412;2023-02-11T09:33:01;48.17;;;19.92;;
73428;SDS011;61643;49.564;17.412;2023-02-11T09:35:28;47.03;;;19.45;;
73428;SDS011;61643;49.564;17.412;2023-02-11T09:37:54;40.55;;;17.40;;
73428;SDS011;61643;49.564;17.412;2023-02-11T09:40:20;41.30;;;18.83;;
73428;SDS011;61643;49.564;17.412;2023-02-11T09:42:52;56.17;;;29.48;;
73428;SDS011;61643;49.564;17.412;2023-02-11T09:45:28;41.08;;;17.90;;
73428;SDS011;61643;49.564;17.412;2023-02-11T09:50:28;42.50;;;17.25;;
73428;SDS011;61643;49.564;17.412;2023-02-11T09:55:32;35.65;;;16.20;;
73428;SDS011;61643;49.564;17.412;2023-02-11T09:58:03;36.15;;;16.35;;
73428;SDS011;61643;49.564;17.412;2023-02-11T10:00:36;35.63;;;15.80;;
73428;SDS011;61643;49.564;17.412;2023-02-11T10:08:32;41.25;;;16.38;;
73428;SDS011;61643;49.564;17.412;2023-02-11T10:16:56;46.83;;;17.73;;
73428;SDS011;61643;49.564;17.412;2023-02-11T10:19:42;36.28;;;16.58;;
73428;SDS011;61643;49.564;17.412;2023-02-11T10:22:21;41.90;;;17.85;;
73428;SDS011;61643;49.564;17.412;2023-02-11T10:27:49;39.70;;;18.00;;
73428;SDS011;61643;49.564;17.412;2023-02-11T10:30:32;41.88;;;18.25;;
73428;SDS011;61643;49.564;17.412;2023-02-11T10:33:10;41.83;;;19.35;;
73428;SDS011;61643;49.564;17.412;2023-02-11T10:35:47;40.30;;;17.67;;
73428;SDS011;61643;49.564;17.412;2023-02-11T10:38:13;45.03;;;18.98;;
73428;SDS011;61643;49.564;17.412;2023-02-11T10:40:39;41.67;;;19.05;;
73428;SDS011;61643;49.564;17.412;2023-02-11T10:43:07;39.80;;;17.70;;
73428;SDS011;61643;49.564;17.412;2023-02-11T10:45:43;38.95;;;16.45;;
73428;SDS011;61643;49.564;17.412;2023-02-11T10:54:16;34.28;;;15.10;;
73428;SDS011;61643;49.564;17.412;2023-02-11T10:56:44;36.20;;;14.93;;
73428;SDS011;61643;49.564;17.412;2023-02-11T11:02:20;34.25;;;14.25;;
73428;SDS011;61643;49.564;17.412;2023-02-11T11:04:46;42.20;;;16.48;;
73428;SDS011;61643;49.564;17.412;2023-02-11T11:07:22;35.08;;;15.57;;
73428;SDS011;61643;49.564;17.412;2023-02-11T11:10:36;35.92;;;15.40;;
73428;SDS011;61643;49.564;17.412;2023-02-11T11:12:55;34.50;;;15.38;;
73428;SDS011;61643;49.564;17.412;2023-02-11T11:15:25;35.50;;;16.20;;
73428;SDS011;61643;49.564;17.412;2023-02-11T11:20:42;39.67;;;16.27;;
73428;SDS011;61643;49.564;17.412;2023-02-11T11:23:21;32.78;;;14.32;;
73428;SDS011;61643;49.564;17.412;2023-02-11T11:28:32;34.75;;;15.32;;
73428;SDS011;61643;49.564;17.412;2023-02-11T11:33:36;35.35;;;14.18;;
73428;SDS011;61643;49.564;17.412;2023-02-11T11:36:08;34.97;;;15.13;;
73428;SDS011;61643;49.564;17.412;2023-02-11T11:38:42;37.03;;;15.50;;
73428;SDS011;61643;49.564;17.412;2023-02-11T11:43:52;38.47;;;16.05;;
73428;SDS011;61643;49.564;17.412;2023-02-11T11:46:24;35.20;;;14.88;;
73428;SDS011;61643;49.564;17.412;2023-02-11T11:48:53;37.13;;;15.27;;
73428;SDS011;61643;49.564;17.412;2023-02-11T11:51:25;34.35;;;14.88;;
73428;SDS011;61643;49.564;17.412;2023-02-11T11:53:55;35.83;;;15.20;;
73428;SDS011;61643;49.564;17.412;2023-02-11T11:56:27;38.42;;;16.00;;
73428;SDS011;61643;49.564;17.412;2023-02-11T11:58:59;35.80;;;14.98;;
73428;SDS011;61643;49.564;17.412;2023-02-11T12:04:35;38.80;;;17.00;;
73428;SDS011;61643;49.564;17.412;2023-02-11T12:07:17;40.95;;;17.77;;
73428;SDS011;61643;49.564;17.412;2023-02-11T12:09:53;43.63;;;17.60;;
73428;SDS011;61643;49.564;17.412;2023-02-11T12:12:39;36.25;;;15.18;;
73428;SDS011;61643;49.564;17.412;2023-02-11T12:18:34;44.50;;;17.25;;
73428;SDS011;61643;49.564;17.412;2023-02-11T12:21:29;44.75;;;18.17;;
73428;SDS011;61643;49.564;17.412;2023-02-11T12:24:17;45.13;;;19.25;;
73428;SDS011;61643;49.564;17.412;2023-02-11T12:27:07;37.53;;;16.67;;
73428;SDS011;61643;49.564;17.412;2023-02-11T12:32:29;37.67;;;16.30;;
73428;SDS011;61643;49.564;17.412;2023-02-11T13:02:20;43.08;;;19.40;;
73428;SDS011;61643;49.564;17.412;2023-02-11T13:04:54;38.17;;;16.63;;
73428;SDS011;61643;49.564;17.412;2023-02-11T13:07:29;39.33;;;16.23;;
73428;SDS011;61643;49.564;17.412;2023-02-11T13:12:38;37.78;;;16.83;;
73428;SDS011;61643;49.564;17.412;2023-02-11T13:15:28;37.88;;;16.63;;
73428;SDS011;61643;49.564;17.412;2023-02-11T13:17:59;40.80;;;16.88;;
73428;SDS011;61643;49.564;17.412;2023-02-11T13:20:37;43.88;;;19.92;;
73428;SDS011;61643;49.564;17.412;2023-02-11T13:26:09;41.75;;;16.90;;
73428;SDS011;61643;49.564;17.412;2023-02-11T13:28:41;41.75;;;17.60;;
73428;SDS011;61643;49.564;17.412;2023-02-11T13:31:09;76.53;;;34.80;;
73428;SDS011;61643;49.564;17.412;2023-02-11T13:33:37;73.43;;;34.60;;
73428;SDS011;61643;49.564;17.412;2023-02-11T13:38:33;52.05;;;24.05;;
73428;SDS011;61643;49.564;17.412;2023-02-11T13:41:01;50.75;;;21.23;;
73428;SDS011;61643;49.564;17.412;2023-02-11T13:43:41;47.30;;;21.38;;
73428;SDS011;61643;49.564;17.412;2023-02-11T13:46:12;39.55;;;19.08;;
73428;SDS011;61643;49.564;17.412;2023-02-11T13:48:49;42.95;;;20.15;;
73428;SDS011;61643;49.564;17.412;2023-02-11T13:51:18;42.97;;;18.50;;
73428;SDS011;61643;49.564;17.412;2023-02-11T13:54:00;35.15;;;15.70;;
73428;SDS011;61643;49.564;17.412;2023-02-11T13:56:32;36.45;;;16.98;;
73428;SDS011;61643;49.564;17.412;2023-02-11T13:59:04;34.22;;;15.23;;
73428;SDS011;61643;49.564;17.412;2023-02-11T14:04:36;32.75;;;15.10;;
73428;SDS011;61643;49.564;17.412;2023-02-11T14:10:56;39.78;;;18.73;;
73428;SDS011;61643;49.564;17.412;2023-02-11T14:16:06;37.00;;;15.45;;
73428;SDS011;61643;49.564;17.412;2023-02-11T14:21:11;38.20;;;15.43;;
73428;SDS011;61643;49.564;17.412;2023-02-11T14:35:02;34.72;;;15.80;;
73428;SDS011;61643;49.564;17.412;2023-02-11T14:40:34;38.78;;;16.40;;
73428;SDS011;61643;49.564;17.412;2023-02-11T14:45:37;37.08;;;16.38;;
73428;SDS011;61643;49.564;17.412;2023-02-11T14:48:05;40.85;;;16.52;;
73428;SDS011;61643;49.564;17.412;2023-02-11T14:53:16;42.97;;;17.30;;
73428;SDS011;61643;49.564;17.412;2023-02-11T14:55:47;41.63;;;17.05;;
73428;SDS011;61643;49.564;17.412;2023-02-11T14:58:21;39.45;;;16.02;;
73428;SDS011;61643;49.564;17.412;2023-02-11T15:00:53;36.53;;;16.40;;
73428;SDS011;61643;49.564;17.412;2023-02-11T15:03:41;41.15;;;17.40;;
73428;SDS011;61643;49.564;17.412;2023-02-11T15:08:43;38.15;;;16.98;;
73428;SDS011;61643;49.564;17.412;2023-02-11T15:11:14;49.63;;;18.65;;
73428;SDS011;61643;49.564;17.412;2023-02-11T15:13:42;44.70;;;18.42;;
73428;SDS011;61643;49.564;17.412;2023-02-11T15:16:12;41.28;;;17.90;;
73428;SDS011;61643;49.564;17.412;2023-02-11T15:18:44;47.17;;;18.17;;
73428;SDS011;61643;49.564;17.412;2023-02-11T15:21:26;44.85;;;17.73;;
73428;SDS011;61643;49.564;17.412;2023-02-11T15:23:56;43.33;;;17.35;;
73428;SDS011;61643;49.564;17.412;2023-02-11T15:26:28;36.92;;;16.27;;
73428;SDS011;61643;49.564;17.412;2023-02-11T15:28:54;41.90;;;17.63;;
73428;SDS011;61643;49.564;17.412;2023-02-11T15:31:21;40.47;;;17.40;;
73428;SDS011;61643;49.564;17.412;2023-02-11T15:33:50;41.63;;;17.83;;
73428;SDS011;61643;49.564;17.412;2023-02-11T15:36:16;40.92;;;18.95;;
73428;SDS011;61643;49.564;17.412;2023-02-11T15:38:47;49.20;;;19.23;;
73428;SDS011;61643;49.564;17.412;2023-02-11T15:41:53;44.90;;;18.83;;
73428;SDS011;61643;49.564;17.412;2023-02-11T15:44:29;42.28;;;18.52;;
73428;SDS011;61643;49.564;17.412;2023-02-11T15:46:57;41.22;;;19.08;;
73428;SDS011;61643;49.564;17.412;2023-02-11T15:49:23;44.50;;;18.92;;
73428;SDS011;61643;49.564;17.412;2023-02-11T15:51:50;43.22;;;18.42;;
73428;SDS011;61643;49.564;17.412;2023-02-11T15:54:23;47.08;;;18.58;;
73428;SDS011;61643;49.564;17.412;2023-02-11T15:56:53;44.17;;;18.63;;
73428;SDS011;61643;49.564;17.412;2023-02-11T15:59:25;64.68;;;25.92;;
73428;SDS011;61643;49.564;17.412;2023-02-11T16:01:55;55.67;;;23.90;;
73428;SDS011;61643;49.564;17.412;2023-02-11T16:04:24;56.90;;;23.63;;
73428;SDS011;61643;49.564;17.412;2023-02-11T16:06:52;61.28;;;26.65;;
73428;SDS011;61643;49.564;17.412;2023-02-11T16:09:34;52.20;;;23.40;;
73428;SDS011;61643;49.564;17.412;2023-02-11T16:12:03;75.78;;;31.73;;
73428;SDS011;61643;49.564;17.412;2023-02-11T16:14:47;74.28;;;31.70;;
73428;SDS011;61643;49.564;17.412;2023-02-11T16:19:42;86.88;;;39.38;;
73428;SDS011;61643;49.564;17.412;2023-02-11T16:22:13;81.45;;;34.67;;
73428;SDS011;61643;49.564;17.412;2023-02-11T16:24:44;83.18;;;35.45;;
73428;SDS011;61643;49.564;17.412;2023-02-11T16:30:05;63.10;;;29.13;;
73428;SDS011;61643;49.564;17.412;2023-02-11T16:32:47;74.65;;;32.97;;
73428;SDS011;61643;49.564;17.412;2023-02-11T16:35:13;58.30;;;26.45;;
73428;SDS011;61643;49.564;17.412;2023-02-11T16:37:39;48.55;;;22.20;;
73428;SDS011;61643;49.564;17.412;2023-02-11T16:40:05;53.15;;;21.67;;
73428;SDS011;61643;49.564;17.412;2023-02-11T16:42:31;52.95;;;23.20;;
73428;SDS011;61643;49.564;17.412;2023-02-11T16:44:57;50.70;;;21.70;;
73428;SDS011;61643;49.564;17.412;2023-02-11T16:47:25;58.72;;;23.88;;
73428;SDS011;61643;49.564;17.412;2023-02-11T16:49:52;59.33;;;23.95;;
73428;SDS011;61643;49.564;17.412;2023-02-11T16:52:20;69.00;;;25.73;;
73428;SDS011;61643;49.564;17.412;2023-02-11T16:54:47;78.80;;;28.48;;
73428;SDS011;61643;49.564;17.412;2023-02-11T16:57:13;83.10;;;31.50;;
73428;SDS011;61643;49.564;17.412;2023-02-11T16:59:42;84.82;;;35.03;;
73428;SDS011;61643;49.564;17.412;2023-02-11T17:02:12;91.90;;;40.00;;
73428;SDS011;61643;49.564;17.412;2023-02-11T17:04:51;75.38;;;32.85;;
73428;SDS011;61643;49.564;17.412;2023-02-11T17:12:09;63.38;;;27.85;;